createdAt,value
2018-09-13T00:00:22.564Z,929.71
2018-09-13T00:01:53.929Z,929.69
2018-09-13T00:03:25.503Z,929.61
2018-09-13T00:06:28.738Z,929.75
2018-09-13T00:08:00.211Z,929.70
2018-09-13T00:09:31.785Z,929.72
2018-09-13T00:11:03.349Z,929.70
2018-09-13T00:12:35.019Z,929.74
2018-09-13T00:14:06.488Z,929.70
2018-09-13T00:15:38.117Z,929.68
2018-09-13T00:17:09.685Z,929.64
2018-09-13T00:18:41.554Z,929.72
2018-09-13T00:20:12.824Z,929.64
2018-09-13T00:21:44.396Z,929.71
2018-09-13T00:23:15.964Z,929.64
2018-09-13T00:24:47.684Z,929.68
2018-09-13T00:26:19.104Z,929.67
2018-09-13T00:27:50.673Z,929.65
2018-09-13T00:29:22.244Z,929.70
2018-09-13T00:30:54.470Z,929.68
2018-09-13T00:32:25.383Z,929.68
2018-09-13T00:33:56.953Z,929.65
2018-09-13T00:35:28.524Z,929.58
2018-09-13T00:37:00.343Z,929.61
2018-09-13T00:38:31.664Z,929.67
2018-09-13T00:40:03.233Z,929.61
2018-09-13T00:41:34.806Z,929.62
2018-09-13T00:43:06.574Z,929.60
2018-09-13T00:44:37.943Z,929.61
2018-09-13T00:46:09.513Z,929.52
2018-09-13T00:47:41.086Z,929.49
2018-09-13T00:49:12.803Z,929.50
2018-09-13T00:50:44.221Z,929.40
2018-09-13T00:52:15.792Z,929.60
2018-09-13T00:53:47.564Z,929.60
2018-09-13T00:55:19.233Z,929.52
2018-09-13T00:56:50.505Z,929.58
2018-09-13T00:58:22.072Z,929.58
2018-09-13T00:59:53.642Z,929.51
2018-09-13T01:01:25.368Z,929.57
2018-09-13T01:02:56.781Z,929.55
2018-09-13T01:04:28.352Z,929.59
2018-09-13T01:07:31.649Z,929.48
2018-09-13T01:09:03.061Z,929.56
2018-09-13T01:10:34.631Z,929.57
2018-09-13T01:12:06.201Z,929.59
2018-09-13T01:13:38.072Z,929.57
2018-09-13T01:15:09.344Z,929.55
2018-09-13T01:16:41.252Z,929.51
2018-09-13T01:18:12.481Z,929.49
2018-09-13T01:19:44.822Z,929.49
2018-09-13T01:21:15.620Z,929.52
2018-09-13T01:22:47.190Z,929.44
2018-09-13T01:24:18.759Z,929.46
2018-09-13T01:25:50.482Z,929.48
2018-09-13T01:27:21.900Z,929.50
2018-09-13T01:28:53.470Z,929.38
2018-09-13T01:30:25.041Z,929.43
2018-09-13T01:31:56.876Z,929.48
2018-09-13T01:33:28.179Z,929.45
2018-09-13T01:34:59.752Z,929.34
2018-09-13T01:36:31.319Z,929.33
2018-09-13T01:38:03.040Z,929.38
2018-09-13T01:39:34.457Z,929.39
2018-09-13T01:41:06.027Z,929.41
2018-09-13T01:42:37.597Z,929.39
2018-09-13T01:44:09.317Z,929.42
2018-09-13T01:45:41.510Z,929.33
2018-09-13T01:47:12.306Z,929.41
2018-09-13T01:48:43.881Z,929.41
2018-09-13T01:50:15.697Z,929.32
2018-09-13T01:51:47.017Z,929.37
2018-09-13T01:53:18.586Z,929.19
2018-09-13T01:54:50.155Z,929.32
2018-09-13T01:56:21.928Z,929.23
2018-09-13T01:57:53.295Z,929.24
2018-09-13T01:59:24.866Z,929.26
2018-09-13T02:00:56.443Z,929.26
2018-09-13T02:02:28.106Z,929.21
2018-09-13T02:03:59.691Z,929.17
2018-09-13T02:05:31.145Z,929.22
2018-09-13T02:07:02.714Z,929.12
2018-09-13T02:08:34.587Z,929.20
2018-09-13T02:10:05.857Z,929.18
2018-09-13T02:11:37.424Z,929.22
2018-09-13T02:13:09.011Z,929.16
2018-09-13T02:14:40.768Z,929.14
2018-09-13T02:16:12.134Z,929.13
2018-09-13T02:17:43.703Z,929.04
2018-09-13T02:19:15.273Z,929.07
2018-09-13T02:20:46.993Z,929.03
2018-09-13T02:22:18.413Z,929.03
2018-09-13T02:23:49.983Z,929.06
2018-09-13T02:25:21.553Z,929.07
2018-09-13T02:26:53.376Z,929.07
2018-09-13T02:28:24.725Z,929.09
2018-09-13T02:29:56.262Z,929.08
2018-09-13T02:31:27.834Z,929.07
2018-09-13T02:32:59.554Z,929.02
2018-09-13T02:34:30.974Z,929.09
2018-09-13T02:36:02.542Z,929.09
2018-09-13T02:37:34.112Z,929.04
2018-09-13T02:39:05.832Z,929.00
2018-09-13T02:40:37.257Z,929.05
2018-09-13T02:42:08.768Z,929.01
2018-09-13T02:43:40.336Z,928.98
2018-09-13T02:45:12.106Z,928.97
2018-09-13T02:47:09.191Z,929.02
2018-09-13T02:48:15.088Z,928.94
2018-09-13T02:49:46.858Z,928.94
2018-09-13T02:51:18.326Z,928.90
2018-09-13T02:52:49.812Z,928.92
2018-09-13T02:54:21.384Z,928.86
2018-09-13T02:55:52.954Z,928.91
2018-09-13T02:57:24.672Z,928.91
2018-09-13T02:58:56.661Z,928.87
2018-09-13T03:00:27.662Z,928.83
2018-09-13T03:01:59.232Z,928.85
2018-09-13T03:03:31.906Z,928.72
2018-09-13T03:05:02.371Z,928.80
2018-09-13T03:06:33.944Z,928.80
2018-09-13T03:08:05.553Z,928.76
2018-09-13T03:09:37.242Z,928.73
2018-09-13T03:11:08.651Z,928.65
2018-09-13T03:12:40.363Z,928.67
2018-09-13T03:14:11.849Z,928.64
2018-09-13T03:15:43.511Z,928.63
2018-09-13T03:17:14.934Z,928.69
2018-09-13T03:18:46.505Z,928.67
2018-09-13T03:20:18.071Z,928.45
2018-09-13T03:21:49.892Z,928.53
2018-09-13T03:23:21.211Z,928.49
2018-09-13T03:24:52.779Z,928.47
2018-09-13T03:26:24.349Z,928.46
2018-09-13T03:27:56.069Z,928.35
2018-09-13T03:29:27.489Z,928.37
2018-09-13T03:30:59.057Z,928.36
2018-09-13T03:32:30.583Z,928.38
2018-09-13T03:34:02.242Z,928.38
2018-09-13T03:35:33.711Z,928.35
2018-09-13T03:37:05.287Z,928.44
2018-09-13T03:38:36.851Z,928.43
2018-09-13T03:40:08.627Z,928.41
2018-09-13T03:41:40.216Z,928.43
2018-09-13T03:43:11.561Z,928.40
2018-09-13T03:44:43.131Z,928.40
2018-09-13T03:46:14.809Z,928.39
2018-09-13T03:49:17.842Z,928.33
2018-09-13T03:50:49.426Z,928.35
2018-09-13T03:52:21.081Z,928.33
2018-09-13T03:53:52.553Z,928.33
2018-09-13T03:55:24.121Z,928.32
2018-09-13T03:56:55.690Z,928.28
2018-09-13T03:58:27.460Z,928.23
2018-09-13T03:59:58.829Z,928.23
2018-09-13T04:01:30.402Z,928.03
2018-09-13T04:03:01.969Z,928.13
2018-09-13T04:04:33.647Z,928.11
2018-09-13T04:06:05.116Z,928.14
2018-09-13T04:07:36.678Z,928.11
2018-09-13T04:09:08.262Z,928.08
2018-09-13T04:10:39.920Z,928.10
2018-09-13T04:12:11.386Z,928.07
2018-09-13T04:13:43.263Z,928.11
2018-09-13T04:15:14.532Z,928.09
2018-09-13T04:16:46.356Z,928.09
2018-09-13T04:18:17.674Z,928.11
2018-09-13T04:19:49.234Z,928.04
2018-09-13T04:21:20.812Z,928.06
2018-09-13T04:22:52.783Z,928.04
2018-09-13T04:24:23.944Z,928.01
2018-09-13T04:25:55.514Z,928.00
2018-09-13T04:27:27.084Z,928.00
2018-09-13T04:28:58.753Z,928.00
2018-09-13T04:30:30.223Z,927.89
2018-09-13T04:32:01.794Z,927.87
2018-09-13T04:33:33.362Z,927.89
2018-09-13T04:35:05.134Z,927.84
2018-09-13T04:36:36.512Z,927.86
2018-09-13T04:38:08.073Z,927.84
2018-09-13T04:39:39.642Z,927.82
2018-09-13T04:41:11.312Z,927.77
2018-09-13T04:42:42.785Z,927.73
2018-09-13T04:44:14.356Z,927.72
2018-09-13T04:45:46.124Z,927.70
2018-09-13T04:47:17.597Z,927.65
2018-09-13T04:48:49.061Z,927.63
2018-09-13T04:50:20.630Z,927.66
2018-09-13T04:51:52.201Z,927.56
2018-09-13T04:53:24.170Z,927.54
2018-09-13T04:54:55.340Z,927.49
2018-09-13T04:56:26.909Z,927.45
2018-09-13T04:57:58.480Z,927.48
2018-09-13T04:59:30.149Z,927.42
2018-09-13T05:01:01.618Z,927.39
2018-09-13T05:02:33.197Z,927.37
2018-09-13T05:04:04.759Z,927.31
2018-09-13T05:05:36.429Z,927.36
2018-09-13T05:07:07.899Z,927.30
2018-09-13T05:08:39.469Z,927.28
2018-09-13T05:10:11.036Z,927.28
2018-09-13T05:11:43.009Z,927.27
2018-09-13T05:13:14.177Z,927.24
2018-09-13T05:14:45.747Z,927.26
2018-09-13T05:16:17.316Z,927.20
2018-09-13T05:17:48.987Z,927.21
2018-09-13T05:19:20.456Z,927.19
2018-09-13T05:20:52.026Z,927.14
2018-09-13T05:22:23.595Z,927.24
2018-09-13T05:23:55.264Z,927.16
2018-09-13T05:25:26.741Z,927.19
2018-09-13T05:26:58.306Z,927.07
2018-09-13T05:28:29.873Z,927.12
2018-09-13T05:30:01.646Z,927.04
2018-09-13T05:31:33.061Z,927.01
2018-09-13T05:33:04.585Z,927.03
2018-09-13T05:34:36.150Z,927.00
2018-09-13T05:36:08.022Z,927.07
2018-09-13T05:37:39.294Z,927.00
2018-09-13T05:39:10.866Z,926.98
2018-09-13T05:40:42.431Z,927.02
2018-09-13T05:42:14.100Z,927.06
2018-09-13T05:43:45.570Z,927.05
2018-09-13T05:45:17.140Z,926.95
2018-09-13T05:46:48.713Z,926.90
2018-09-13T05:48:20.479Z,926.95
2018-09-13T05:49:51.848Z,926.93
2018-09-13T05:51:23.418Z,926.87
2018-09-13T05:52:54.989Z,926.87
2018-09-13T05:54:26.708Z,926.77
2018-09-13T05:55:58.127Z,926.82
2018-09-13T05:57:29.696Z,926.82
2018-09-13T05:59:01.267Z,926.79
2018-09-13T06:00:32.936Z,926.74
2018-09-13T06:02:04.407Z,926.80
2018-09-13T06:03:35.976Z,926.76
2018-09-13T06:05:07.548Z,926.79
2018-09-13T06:06:39.265Z,926.72
2018-09-13T06:08:10.685Z,926.77
2018-09-13T06:09:42.254Z,926.77
2018-09-13T06:11:13.823Z,926.74
2018-09-13T06:12:45.695Z,926.79
2018-09-13T06:14:16.962Z,926.77
2018-09-13T06:15:48.536Z,926.72
2018-09-13T06:17:20.102Z,926.80
2018-09-13T06:18:52.076Z,926.78
2018-09-13T06:20:23.240Z,926.78
2018-09-13T06:21:54.811Z,926.76
2018-09-13T06:23:26.382Z,926.70
2018-09-13T06:24:58.451Z,926.71
2018-09-13T06:26:29.520Z,926.73
2018-09-13T06:28:01.089Z,926.71
2018-09-13T06:29:32.740Z,926.71
2018-09-13T06:31:04.330Z,926.56
2018-09-13T06:32:35.798Z,926.66
2018-09-13T06:34:07.368Z,926.71
2018-09-13T06:35:38.937Z,926.64
2018-09-13T06:37:10.658Z,926.61
2018-09-13T06:38:42.077Z,926.63
2018-09-13T06:40:13.647Z,926.55
2018-09-13T06:41:45.523Z,926.58
2018-09-13T06:43:16.988Z,926.61
2018-09-13T06:44:48.359Z,926.56
2018-09-13T06:46:19.930Z,926.55
2018-09-13T06:47:51.498Z,926.54
2018-09-13T06:49:23.167Z,926.52
2018-09-13T06:50:54.636Z,926.48
2018-09-13T06:52:26.205Z,926.47
2018-09-13T06:53:57.777Z,926.52
2018-09-13T06:55:29.500Z,926.46
2018-09-13T06:57:00.915Z,926.48
2018-09-13T06:58:32.484Z,926.42
2018-09-13T07:00:04.054Z,926.23
2018-09-13T07:01:35.924Z,926.40
2018-09-13T07:03:07.193Z,926.38
2018-09-13T07:04:38.769Z,926.34
2018-09-13T07:06:10.333Z,926.33
2018-09-13T07:07:42.003Z,926.38
2018-09-13T07:09:13.579Z,926.34
2018-09-13T07:10:45.042Z,926.30
2018-09-13T07:12:16.611Z,926.14
2018-09-13T07:13:48.282Z,926.29
2018-09-13T07:15:19.751Z,926.33
2018-09-13T07:16:51.322Z,926.39
2018-09-13T07:18:22.890Z,926.41
2018-09-13T07:19:54.661Z,926.35
2018-09-13T07:21:26.029Z,926.25
2018-09-13T07:22:57.599Z,926.42
2018-09-13T07:24:29.168Z,926.36
2018-09-13T07:26:00.891Z,926.47
2018-09-13T07:27:32.307Z,926.39
2018-09-13T07:29:03.878Z,926.49
2018-09-13T07:30:35.448Z,926.37
2018-09-13T07:32:07.167Z,926.46
2018-09-13T07:33:38.586Z,926.42
2018-09-13T07:35:10.155Z,926.44
2018-09-13T07:36:41.732Z,926.28
2018-09-13T07:38:13.495Z,926.47
2018-09-13T07:39:44.866Z,926.46
2018-09-13T07:41:16.434Z,926.48
2018-09-13T07:42:48.085Z,926.35
2018-09-13T07:44:19.874Z,926.51
2018-09-13T07:45:51.143Z,926.51
2018-09-13T07:47:22.712Z,926.49
2018-09-13T07:48:54.325Z,926.50
2018-09-13T07:50:25.952Z,926.47
2018-09-13T07:51:57.421Z,926.47
2018-09-13T07:53:28.991Z,926.51
2018-09-13T07:55:00.560Z,926.47
2018-09-13T07:56:32.562Z,926.54
2018-09-13T07:58:03.699Z,926.45
2018-09-13T07:59:35.270Z,926.50
2018-09-13T08:01:06.840Z,926.55
2018-09-13T08:02:38.568Z,926.58
2018-09-13T08:04:09.986Z,926.57
2018-09-13T08:07:13.118Z,926.62
2018-09-13T08:08:44.838Z,926.61
2018-09-13T08:10:16.261Z,926.60
2018-09-13T08:11:47.862Z,926.56
2018-09-13T08:13:19.398Z,926.62
2018-09-13T08:14:51.419Z,926.68
2018-09-13T08:16:22.536Z,926.65
2018-09-13T08:17:54.105Z,926.72
2018-09-13T08:19:25.676Z,926.75
2018-09-13T08:20:57.346Z,926.74
2018-09-13T08:22:28.818Z,926.75
2018-09-13T08:24:00.387Z,926.76
2018-09-13T08:25:31.955Z,926.71
2018-09-13T08:27:03.891Z,926.68
2018-09-13T08:28:35.155Z,926.73
2018-09-13T08:30:06.664Z,926.73
2018-09-13T08:31:38.233Z,926.75
2018-09-13T08:33:10.114Z,926.69
2018-09-13T08:34:41.427Z,926.69
2018-09-13T08:36:12.949Z,926.74
2018-09-13T08:37:44.513Z,926.74
2018-09-13T08:39:16.183Z,926.74
2018-09-13T08:40:47.652Z,926.78
2018-09-13T08:42:19.222Z,926.78
2018-09-13T08:43:50.792Z,926.82
2018-09-13T08:45:22.662Z,926.79
2018-09-13T08:46:54.156Z,926.69
2018-09-13T08:48:25.522Z,926.83
2018-09-13T08:49:57.072Z,926.80
2018-09-13T08:51:28.892Z,926.83
2018-09-13T08:53:00.211Z,926.85
2018-09-13T08:54:31.782Z,926.86
2018-09-13T08:56:03.351Z,926.83
2018-09-13T08:57:35.221Z,926.82
2018-09-13T08:59:06.491Z,926.79
2018-09-13T09:00:38.103Z,926.87
2018-09-13T09:02:09.631Z,926.84
2018-09-13T09:03:41.302Z,926.88
2018-09-13T09:05:12.771Z,926.92
2018-09-13T09:06:44.340Z,926.78
2018-09-13T09:08:15.913Z,926.88
2018-09-13T09:09:47.680Z,926.91
2018-09-13T09:11:19.050Z,926.89
2018-09-13T09:12:50.620Z,926.88
2018-09-13T09:14:22.189Z,926.93
2018-09-13T09:15:53.859Z,926.97
2018-09-13T09:17:25.329Z,926.97
2018-09-13T09:20:28.469Z,926.98
2018-09-13T09:22:00.191Z,926.95
2018-09-13T09:23:31.675Z,926.92
2018-09-13T09:26:34.749Z,927.01
2018-09-13T09:28:06.521Z,927.00
2018-09-13T09:29:37.889Z,926.92
2018-09-13T09:31:09.459Z,926.98
2018-09-13T09:32:41.030Z,927.03
2018-09-13T09:34:12.700Z,927.05
2018-09-13T09:35:44.171Z,927.03
2018-09-13T09:37:15.941Z,927.00
2018-09-13T09:38:47.310Z,927.02
2018-09-13T09:40:18.983Z,927.05
2018-09-13T09:41:50.981Z,927.11
2018-09-13T09:43:22.023Z,927.02
2018-09-13T09:47:56.977Z,927.03
2018-09-13T09:49:28.505Z,927.20
2018-09-13T09:50:59.872Z,927.23
2018-09-13T09:52:31.878Z,927.21
2018-09-13T09:54:03.656Z,927.21
2018-09-13T09:55:35.919Z,927.15
2018-09-13T09:57:07.277Z,927.21
2018-09-13T09:58:37.954Z,927.18
2018-09-13T10:00:10.316Z,927.27
2018-09-13T10:01:41.181Z,927.39
2018-09-13T10:03:13.528Z,927.43
2018-09-13T10:04:44.725Z,927.44
2018-09-13T10:06:15.927Z,927.36
2018-09-13T10:07:47.447Z,927.47
2018-09-13T10:09:19.216Z,927.49
2018-09-13T10:10:50.710Z,927.48
2018-09-13T10:12:22.315Z,927.42
2018-09-13T10:13:54.191Z,927.48
2018-09-13T10:15:25.318Z,927.41
2018-09-13T10:16:56.927Z,927.53
2018-09-13T10:18:29.048Z,927.52
2018-09-13T10:20:00.499Z,927.52
2018-09-13T10:21:31.427Z,927.51
2018-09-13T10:24:35.465Z,927.52
2018-09-13T10:26:06.036Z,927.59
2018-09-13T10:27:38.802Z,927.59
2018-09-13T10:29:09.406Z,927.59
2018-09-13T10:30:42.214Z,927.53
2018-09-13T10:32:12.768Z,927.62
2018-09-13T10:33:45.205Z,927.62
2018-09-13T10:35:15.637Z,927.65
2018-09-13T10:36:47.925Z,927.58
2018-09-13T10:38:18.828Z,927.68
2018-09-13T10:39:50.203Z,927.68
2018-09-13T10:41:22.052Z,927.69
2018-09-13T10:42:55.008Z,927.71
2018-09-13T10:45:57.453Z,927.63
2018-09-13T10:47:28.156Z,927.59
2018-09-13T10:50:32.216Z,927.63
2018-09-13T10:52:03.492Z,927.59
2018-09-13T10:53:34.521Z,927.56
2018-09-13T10:55:06.067Z,927.60
2018-09-13T10:56:37.881Z,927.61
2018-09-13T10:58:09.082Z,927.54
2018-09-13T10:59:41.183Z,927.57
2018-09-13T11:01:12.217Z,927.70
2018-09-13T11:02:44.019Z,927.50
2018-09-13T11:04:15.532Z,927.76
2018-09-13T11:05:48.227Z,927.74
2018-09-13T11:07:20.489Z,927.58
2018-09-13T11:08:52.710Z,927.74
2018-09-13T11:10:23.093Z,927.72
2018-09-13T11:11:54.034Z,927.79
2018-09-13T11:13:25.199Z,927.79
2018-09-13T11:14:56.956Z,927.75
2018-09-13T11:16:28.917Z,927.73
2018-09-13T11:18:00.762Z,927.79
2018-09-13T11:21:03.635Z,927.97
2018-09-13T11:22:35.165Z,927.93
2018-09-13T11:24:06.914Z,927.95
2018-09-13T11:25:38.732Z,928.01
2018-09-13T11:27:09.873Z,928.10
2018-09-13T11:28:41.121Z,928.17
2018-09-13T11:30:12.134Z,928.06
2018-09-13T11:31:44.349Z,928.02
2018-09-13T11:33:16.553Z,928.05
2018-09-13T11:34:47.602Z,928.04
2018-09-13T11:36:18.779Z,928.07
2018-09-13T11:37:50.490Z,928.07
2018-09-13T11:39:24.567Z,928.10
2018-09-13T11:40:55.001Z,927.99
2018-09-13T11:42:24.850Z,928.13
2018-09-13T11:43:58.611Z,928.08
2018-09-13T11:45:30.212Z,928.15
2018-09-13T11:47:00.230Z,928.02
2018-09-13T11:48:31.869Z,927.98
2018-09-13T11:50:04.315Z,928.13
2018-09-13T11:51:35.819Z,928.09
2018-09-13T11:53:07.709Z,928.14
2018-09-13T11:54:38.424Z,928.18
2018-09-13T11:56:09.060Z,928.23
2018-09-13T11:57:42.259Z,928.26
2018-09-13T11:59:12.212Z,928.31
2018-09-13T12:00:46.236Z,928.26
2018-09-13T12:02:16.203Z,928.40
2018-09-13T12:03:47.890Z,928.35
2018-09-13T12:05:20.835Z,928.45
2018-09-13T12:06:52.257Z,928.48
2018-09-13T12:08:22.402Z,928.58
2018-09-13T12:09:54.435Z,928.50
2018-09-13T12:11:25.680Z,928.36
2018-09-13T12:12:56.935Z,928.42
2018-09-13T12:14:28.888Z,928.62
2018-09-13T12:16:00.058Z,928.47
2018-09-13T12:17:32.266Z,928.61
2018-09-13T12:19:04.025Z,928.43
2018-09-13T12:20:35.604Z,928.42
2018-09-13T12:22:07.874Z,928.51
2018-09-13T12:23:37.742Z,928.55
2018-09-13T12:25:09.515Z,928.56
2018-09-13T12:26:40.999Z,928.56
2018-09-13T12:28:12.875Z,928.44
2018-09-13T12:29:44.194Z,928.55
2018-09-13T12:31:15.568Z,928.44
2018-09-13T12:32:46.645Z,928.44
2018-09-13T12:34:18.733Z,928.44
2018-09-13T12:35:50.828Z,928.49
2018-09-13T12:37:23.147Z,928.52
2018-09-13T12:38:53.702Z,928.45
2018-09-13T12:40:25.790Z,928.52
2018-09-13T12:41:57.737Z,928.47
2018-09-13T12:43:29.202Z,928.36
2018-09-13T12:45:00.369Z,928.35
2018-09-13T12:46:31.043Z,928.32
2018-09-13T12:48:03.322Z,928.37
2018-09-13T12:49:35.460Z,928.34
2018-09-13T12:51:07.000Z,928.32
2018-09-13T12:52:38.874Z,928.39
2018-09-13T12:54:09.603Z,928.28
2018-09-13T12:55:41.072Z,928.47
2018-09-13T12:57:12.455Z,928.30
2018-09-13T12:58:44.897Z,928.44
2018-09-13T13:00:16.518Z,928.18
2018-09-13T13:01:46.948Z,928.25
2018-09-13T13:03:18.145Z,928.14
2018-09-13T13:04:50.214Z,928.23
2018-09-13T13:06:21.332Z,927.98
2018-09-13T13:07:52.828Z,927.93
2018-09-13T13:09:24.675Z,927.92
2018-09-13T13:10:56.395Z,927.81
2018-09-13T13:12:28.207Z,927.94
2018-09-13T13:13:59.736Z,927.89
2018-09-13T13:15:30.729Z,927.84
2018-09-13T13:17:02.776Z,927.72
2018-09-13T13:18:34.081Z,927.85
2018-09-13T13:20:06.392Z,927.85
2018-09-13T13:21:37.227Z,927.78
2018-09-13T13:23:09.100Z,927.77
2018-09-13T13:24:40.254Z,927.70
2018-09-13T13:26:12.274Z,927.77
2018-09-13T13:27:43.624Z,927.77
2018-09-13T13:29:15.553Z,927.52
2018-09-13T13:30:46.698Z,927.55
2018-09-13T13:32:18.431Z,927.56
2018-09-13T13:33:49.765Z,927.66
2018-09-13T13:35:21.468Z,927.78
2018-09-13T13:36:53.486Z,927.59
2018-09-13T13:38:24.798Z,927.51
2018-09-13T13:39:56.143Z,927.38
2018-09-13T13:41:28.005Z,927.54
2018-09-13T13:42:59.631Z,927.44
2018-09-13T13:44:30.816Z,927.55
2018-09-13T13:46:02.458Z,927.56
2018-09-13T13:47:34.459Z,927.56
2018-09-13T13:49:05.756Z,927.52
2018-09-13T13:50:37.155Z,927.45
2018-09-13T13:52:08.706Z,927.51
2018-09-13T13:53:40.701Z,927.51
2018-09-13T13:55:12.069Z,927.51
2018-09-13T13:56:43.799Z,927.53
2018-09-13T13:59:47.331Z,927.46
2018-09-13T14:01:18.314Z,927.44
2018-09-13T14:02:50.057Z,927.42
2018-09-13T14:04:21.896Z,927.34
2018-09-13T14:05:54.125Z,927.39
2018-09-13T14:07:26.556Z,927.37
2018-09-13T14:08:56.503Z,927.29
2018-09-13T14:12:00.339Z,927.21
2018-09-13T14:13:31.055Z,927.18
2018-09-13T14:15:02.710Z,927.02
2018-09-13T14:16:35.437Z,927.02
2018-09-13T14:18:06.178Z,927.01
2018-09-13T14:19:37.668Z,927.07
2018-09-13T14:21:09.488Z,927.01
2018-09-13T14:22:40.633Z,927.00
2018-09-13T14:24:12.246Z,926.96
2018-09-13T14:25:44.064Z,926.96
2018-09-13T14:27:16.373Z,926.93
2018-09-13T14:28:46.656Z,926.94
2018-09-13T14:30:18.855Z,926.92
2018-09-13T14:31:50.325Z,926.98
2018-09-13T14:33:22.373Z,927.04
2018-09-13T14:34:56.324Z,927.04
2018-09-13T14:36:26.416Z,927.05
2018-09-13T14:37:58.406Z,927.03
2018-09-13T14:39:30.374Z,926.96
2018-09-13T14:41:00.146Z,926.92
2018-09-13T14:42:33.406Z,926.91
2018-09-13T14:44:03.870Z,926.78
2018-09-13T14:45:35.178Z,926.73
2018-09-13T14:47:07.973Z,926.68
2018-09-13T14:48:39.929Z,926.61
2018-09-13T14:50:10.408Z,926.64
2018-09-13T14:51:43.032Z,926.58
2018-09-13T14:53:14.634Z,926.55
2018-09-13T14:54:45.064Z,926.55
2018-09-13T14:56:16.715Z,926.47
2018-09-13T14:57:48.201Z,926.46
2018-09-13T14:59:20.054Z,926.50
2018-09-13T15:00:51.773Z,926.49
2018-09-13T15:02:22.989Z,926.47
2018-09-13T15:03:54.865Z,926.44
2018-09-13T15:05:25.227Z,926.42
2018-09-13T15:06:57.431Z,926.41
2018-09-13T15:08:28.063Z,926.44
2018-09-13T15:09:59.848Z,926.41
2018-09-13T15:11:31.568Z,926.40
2018-09-13T15:14:34.454Z,926.34
2018-09-13T15:16:05.763Z,926.38
2018-09-13T15:19:09.558Z,926.33
2018-09-13T15:20:40.923Z,926.34
2018-09-13T15:23:44.025Z,926.28
2018-09-13T15:25:15.273Z,926.23
2018-09-13T15:26:47.769Z,926.17
2018-09-13T15:29:50.249Z,926.20
2018-09-13T15:31:22.109Z,926.16
2018-09-13T15:32:53.439Z,926.10
2018-09-13T15:34:24.789Z,926.09
2018-09-13T15:35:56.681Z,926.06
2018-09-13T15:37:28.010Z,926.08
2018-09-13T15:39:00.848Z,926.03
2018-09-13T15:40:31.131Z,925.96
2018-09-13T15:42:02.837Z,926.00
2018-09-13T15:43:35.106Z,925.88
2018-09-13T15:45:07.915Z,925.83
2018-09-13T15:46:37.575Z,925.78
2018-09-13T15:48:09.491Z,925.72
2018-09-13T15:49:40.816Z,925.66
2018-09-13T15:51:12.331Z,925.57
2018-09-13T15:52:43.861Z,925.55
2018-09-13T15:54:15.631Z,925.47
2018-09-13T15:55:48.014Z,925.35
2018-09-13T15:57:19.331Z,925.28
2018-09-13T15:58:50.895Z,925.20
2018-09-13T16:00:22.009Z,925.30
2018-09-13T16:01:54.133Z,925.28
2018-09-13T16:03:25.558Z,925.26
2018-09-13T16:04:56.673Z,925.24
2018-09-13T16:06:29.184Z,925.15
2018-09-13T16:09:32.615Z,925.07
2018-09-13T16:11:04.297Z,925.05
2018-09-13T16:12:35.944Z,925.01
2018-09-13T16:14:06.723Z,924.91
2018-09-13T16:15:38.377Z,924.88
2018-09-13T16:17:09.266Z,924.83
2018-09-13T16:18:40.808Z,924.78
2018-09-13T16:20:12.512Z,924.75
2018-09-13T16:21:44.965Z,924.82
2018-09-13T16:23:15.712Z,924.82
2018-09-13T16:24:48.154Z,924.76
2018-09-13T16:26:18.991Z,924.71
2018-09-13T16:27:54.780Z,924.66
2018-09-13T16:29:23.351Z,924.69
2018-09-13T16:30:55.809Z,924.66
2018-09-13T16:32:27.223Z,924.58
2018-09-13T16:34:01.194Z,924.65
2018-09-13T16:35:28.649Z,924.61
2018-09-13T16:37:01.821Z,924.58
2018-09-13T16:38:33.270Z,924.56
2018-09-13T16:40:04.613Z,924.51
2018-09-13T16:41:36.738Z,924.54
2018-09-13T16:43:08.605Z,924.58
2018-09-13T16:44:38.644Z,924.49
2018-09-13T16:46:10.400Z,924.42
2018-09-13T16:47:42.046Z,924.37
2018-09-13T16:49:12.999Z,924.29
2018-09-13T16:50:44.273Z,924.21
2018-09-13T16:52:17.685Z,924.17
2018-09-13T16:53:48.283Z,924.19
2018-09-13T16:55:19.530Z,924.14
2018-09-13T16:56:50.473Z,924.16
2018-09-13T16:59:54.007Z,924.11
2018-09-13T17:01:25.186Z,924.05
2018-09-13T17:02:57.359Z,924.11
2018-09-13T17:04:28.570Z,924.07
2018-09-13T17:06:00.248Z,924.00
2018-09-13T17:07:32.302Z,924.00
2018-09-13T17:09:03.476Z,923.99
2018-09-13T17:10:34.703Z,923.93
2018-09-13T17:12:06.491Z,923.88
2018-09-13T17:13:37.927Z,923.80
2018-09-13T17:15:09.762Z,923.87
2018-09-13T17:16:41.053Z,923.85
2018-09-13T17:18:12.931Z,923.81
2018-09-13T17:19:44.216Z,923.78
2018-09-13T17:22:47.690Z,923.70
2018-09-13T17:24:19.084Z,923.79
2018-09-13T17:27:22.187Z,923.84
2018-09-13T17:28:53.727Z,923.86
2018-09-13T17:30:25.543Z,923.81
2018-09-13T17:31:56.937Z,923.76
2018-09-13T17:35:03.629Z,923.75
2018-09-13T17:36:31.750Z,923.76
2018-09-13T17:38:03.243Z,923.72
2018-09-13T17:39:35.022Z,923.66
2018-09-13T17:41:06.404Z,923.63
2018-09-13T17:42:38.092Z,923.53
2018-09-13T17:44:09.843Z,923.50
2018-09-13T17:45:41.785Z,923.49
2018-09-13T17:47:12.841Z,923.47
2018-09-13T17:48:44.841Z,923.49
2018-09-13T17:50:16.148Z,923.55
2018-09-13T17:51:48.028Z,923.49
2018-09-13T17:53:19.087Z,923.49
2018-09-13T17:57:53.933Z,923.50
2018-09-13T17:59:25.621Z,923.51
2018-09-13T18:00:57.609Z,923.53
2018-09-13T18:02:28.636Z,923.55
2018-09-13T18:04:00.724Z,923.59
2018-09-13T18:07:03.538Z,923.56
2018-09-13T18:08:35.277Z,923.62
2018-09-13T18:10:07.515Z,923.57
2018-09-13T18:11:38.393Z,923.67
2018-09-13T18:13:09.726Z,923.59
2018-09-13T18:16:13.242Z,923.64
2018-09-13T18:17:44.420Z,923.73
2018-09-13T18:19:16.004Z,923.73
2018-09-13T18:20:48.004Z,923.72
2018-09-13T18:22:19.895Z,923.74
2018-09-13T18:23:51.006Z,923.78
2018-09-13T18:25:22.541Z,923.72
2018-09-13T18:28:25.608Z,923.74
2018-09-13T18:31:28.738Z,923.74
2018-09-13T18:33:00.250Z,923.69
2018-09-13T18:34:32.472Z,923.72
2018-09-13T18:36:03.676Z,923.66
2018-09-13T18:37:35.003Z,923.70
2018-09-13T18:39:06.591Z,923.72
2018-09-13T18:40:38.425Z,923.69
2018-09-13T18:42:09.948Z,923.61
2018-09-13T18:45:12.934Z,923.70
2018-09-13T18:46:45.124Z,923.65
2018-09-13T18:48:16.131Z,923.70
2018-09-13T18:51:19.568Z,923.61
2018-09-13T18:54:23.044Z,923.67
2018-09-13T18:55:54.489Z,923.73
2018-09-13T18:58:57.751Z,923.67
2018-09-13T19:00:28.926Z,923.69
2018-09-13T19:02:00.352Z,923.61
2018-09-13T19:05:03.470Z,923.69
2018-09-13T19:06:35.251Z,923.72
2018-09-13T19:08:07.176Z,923.71
2018-09-13T19:09:38.212Z,923.75
2018-09-13T19:11:09.840Z,923.73
2018-09-13T19:12:41.566Z,923.71
2018-09-13T19:14:13.259Z,923.80
2018-09-13T19:15:44.585Z,923.85
2018-09-13T19:17:16.246Z,923.85
2018-09-13T19:20:19.679Z,923.88
2018-09-13T19:23:22.437Z,923.88
2018-09-13T19:24:54.220Z,923.90
2018-09-13T19:26:25.696Z,923.91
2018-09-13T19:27:57.707Z,923.92
2018-09-13T19:29:28.957Z,923.95
2018-09-13T19:32:32.317Z,923.99
2018-09-13T19:34:03.492Z,923.88
2018-09-13T19:35:35.071Z,923.94
2018-09-13T19:37:06.887Z,923.91
2018-09-13T19:41:41.584Z,923.98
2018-09-13T19:44:44.913Z,924.03
2018-09-13T19:46:16.151Z,923.99
2018-09-13T19:49:19.372Z,923.95
2018-09-13T19:50:51.417Z,924.01
2018-09-13T19:53:54.002Z,924.01
2018-09-13T19:55:25.678Z,923.99
2018-09-13T19:56:57.360Z,923.96
2018-09-13T19:58:28.730Z,923.93
2018-09-13T20:00:00.308Z,923.95
2018-09-13T20:01:32.083Z,923.97
2018-09-13T20:03:03.721Z,923.96
2018-09-13T20:04:35.115Z,924.00
2018-09-13T20:06:06.608Z,924.01